sensor_id;sensor_type;location;lat;lon;timestamp;temperature;humidity
32139;DHT22;18644;48.700;9.210;2023-05-07T00:00:04;15.80;56.30
32139;DHT22;18644;48.700;9.210;2023-05-07T00:02:33;15.80;56.40
32139;DHT22;18644;48.700;9.210;2023-05-07T00:05:00;15.70;56.40
32139;DHT22;18644;48.700;9.210;2023-05-07T00:07:27;15.70;56.40
32139;DHT22;18644;48.700;9.210;2023-05-07T00:09:54;15.70;56.50
32139;DHT22;18644;48.700;9.210;2023-05-07T00:12:21;15.70;56.50
32139;DHT22;18644;48.700;9.210;2023-05-07T00:14:48;15.70;56.60
32139;DHT22;18644;48.700;9.210;2023-05-07T00:17:16;15.60;56.70
32139;DHT22;18644;48.700;9.210;2023-05-07T00:19:43;15.70;56.80
32139;DHT22;18644;48.700;9.210;2023-05-07T00:22:10;15.60;56.70
32139;DHT22;18644;48.700;9.210;2023-05-07T00:24:37;15.60;56.80
32139;DHT22;18644;48.700;9.210;2023-05-07T00:27:04;15.60;56.90
32139;DHT22;18644;48.700;9.210;2023-05-07T00:29:31;15.60;57.00
32139;DHT22;18644;48.700;9.210;2023-05-07T00:31:58;15.60;57.20
32139;DHT22;18644;48.700;9.210;2023-05-07T00:34:26;15.50;57.10
32139;DHT22;18644;48.700;9.210;2023-05-07T00:36:53;15.50;57.20
32139;DHT22;18644;48.700;9.210;2023-05-07T00:39:20;15.50;57.20
32139;DHT22;18644;48.700;9.210;2023-05-07T00:41:47;15.50;57.30
32139;DHT22;18644;48.700;9.210;2023-05-07T00:44:13;15.50;57.40
32139;DHT22;18644;48.700;9.210;2023-05-07T00:46:40;15.50;57.50
32139;DHT22;18644;48.700;9.210;2023-05-07T00:49:07;15.50;57.50
32139;DHT22;18644;48.700;9.210;2023-05-07T00:51:36;15.50;57.60
32139;DHT22;18644;48.700;9.210;2023-05-07T00:54:03;15.40;57.60
32139;DHT22;18644;48.700;9.210;2023-05-07T00:56:30;15.40;57.60
32139;DHT22;18644;48.700;9.210;2023-05-07T00:58:58;15.40;57.60
32139;DHT22;18644;48.700;9.210;2023-05-07T01:01:25;15.40;57.70
32139;DHT22;18644;48.700;9.210;2023-05-07T01:03:53;15.40;58.00
32139;DHT22;18644;48.700;9.210;2023-05-07T01:06:21;15.40;58.10
32139;DHT22;18644;48.700;9.210;2023-05-07T01:08:51;15.40;58.10
32139;DHT22;18644;48.700;9.210;2023-05-07T01:11:18;15.30;58.20
32139;DHT22;18644;48.700;9.210;2023-05-07T01:13:46;15.30;58.20
32139;DHT22;18644;48.700;9.210;2023-05-07T01:16:14;15.30;58.20
32139;DHT22;18644;48.700;9.210;2023-05-07T01:18:41;15.30;58.20
32139;DHT22;18644;48.700;9.210;2023-05-07T01:21:11;15.30;58.20
32139;DHT22;18644;48.700;9.210;2023-05-07T01:23:39;15.30;58.30
32139;DHT22;18644;48.700;9.210;2023-05-07T01:26:07;15.30;58.30
32139;DHT22;18644;48.700;9.210;2023-05-07T01:28:34;15.20;58.20
32139;DHT22;18644;48.700;9.210;2023-05-07T01:31:02;15.20;58.40
32139;DHT22;18644;48.700;9.210;2023-05-07T01:33:34;15.20;58.40
32139;DHT22;18644;48.700;9.210;2023-05-07T01:36:03;15.20;58.40
32139;DHT22;18644;48.700;9.210;2023-05-07T01:38:32;15.20;58.30
32139;DHT22;18644;48.700;9.210;2023-05-07T01:41:01;15.20;58.40
32139;DHT22;18644;48.700;9.210;2023-05-07T01:43:28;15.10;58.50
32139;DHT22;18644;48.700;9.210;2023-05-07T01:45:57;15.10;58.50
32139;DHT22;18644;48.700;9.210;2023-05-07T01:48:25;15.10;58.50
32139;DHT22;18644;48.700;9.210;2023-05-07T01:50:52;15.10;58.60
32139;DHT22;18644;48.700;9.210;2023-05-07T01:53:19;15.10;58.70
32139;DHT22;18644;48.700;9.210;2023-05-07T01:55:46;15.10;58.90
32139;DHT22;18644;48.700;9.210;2023-05-07T01:58:14;15.10;58.90
32139;DHT22;18644;48.700;9.210;2023-05-07T02:00:41;15.00;58.90
32139;DHT22;18644;48.700;9.210;2023-05-07T02:03:08;15.00;58.90
32139;DHT22;18644;48.700;9.210;2023-05-07T02:05:35;15.00;58.90
32139;DHT22;18644;48.700;9.210;2023-05-07T02:08:02;15.00;58.90
32139;DHT22;18644;48.700;9.210;2023-05-07T02:10:29;15.00;59.00
32139;DHT22;18644;48.700;9.210;2023-05-07T02:12:56;14.90;59.00
32139;DHT22;18644;48.700;9.210;2023-05-07T02:15:24;14.90;59.10
32139;DHT22;18644;48.700;9.210;2023-05-07T02:17:59;14.90;59.10
32139;DHT22;18644;48.700;9.210;2023-05-07T02:20:28;14.90;59.40
32139;DHT22;18644;48.700;9.210;2023-05-07T02:22:55;14.90;59.30
32139;DHT22;18644;48.700;9.210;2023-05-07T02:25:22;14.80;59.50
32139;DHT22;18644;48.700;9.210;2023-05-07T02:27:49;14.80;59.60
32139;DHT22;18644;48.700;9.210;2023-05-07T02:30:16;14.80;59.60
32139;DHT22;18644;48.700;9.210;2023-05-07T02:32:45;14.80;59.70
32139;DHT22;18644;48.700;9.210;2023-05-07T02:35:12;14.80;59.80
32139;DHT22;18644;48.700;9.210;2023-05-07T02:37:38;14.80;59.80
32139;DHT22;18644;48.700;9.210;2023-05-07T02:40:06;14.80;59.70
32139;DHT22;18644;48.700;9.210;2023-05-07T02:42:34;14.80;59.80
32139;DHT22;18644;48.700;9.210;2023-05-07T02:45:01;14.80;59.70
32139;DHT22;18644;48.700;9.210;2023-05-07T02:47:28;14.80;59.70
32139;DHT22;18644;48.700;9.210;2023-05-07T02:49:56;14.70;59.60
32139;DHT22;18644;48.700;9.210;2023-05-07T02:52:23;14.70;59.40
32139;DHT22;18644;48.700;9.210;2023-05-07T02:54:50;14.70;59.30
32139;DHT22;18644;48.700;9.210;2023-05-07T02:57:17;14.60;59.30
32139;DHT22;18644;48.700;9.210;2023-05-07T02:59:44;14.60;59.30
32139;DHT22;18644;48.700;9.210;2023-05-07T03:02:11;14.60;59.30
32139;DHT22;18644;48.700;9.210;2023-05-07T03:04:39;14.50;59.50
32139;DHT22;18644;48.700;9.210;2023-05-07T03:07:08;14.50;59.60
32139;DHT22;18644;48.700;9.210;2023-05-07T03:09:35;14.50;59.80
32139;DHT22;18644;48.700;9.210;2023-05-07T03:12:02;14.40;59.80
32139;DHT22;18644;48.700;9.210;2023-05-07T03:14:29;14.40;59.90
32139;DHT22;18644;48.700;9.210;2023-05-07T03:16:55;14.40;60.00
32139;DHT22;18644;48.700;9.210;2023-05-07T03:19:22;14.40;60.30
32139;DHT22;18644;48.700;9.210;2023-05-07T03:21:49;14.40;60.20
32139;DHT22;18644;48.700;9.210;2023-05-07T03:24:17;14.30;60.10
32139;DHT22;18644;48.700;9.210;2023-05-07T03:26:45;14.30;60.10
32139;DHT22;18644;48.700;9.210;2023-05-07T03:29:12;14.30;60.20
32139;DHT22;18644;48.700;9.210;2023-05-07T03:31:38;14.30;60.20
32139;DHT22;18644;48.700;9.210;2023-05-07T03:34:05;14.30;60.10
32139;DHT22;18644;48.700;9.210;2023-05-07T03:36:32;14.30;60.10
32139;DHT22;18644;48.700;9.210;2023-05-07T03:38:59;14.20;60.00
32139;DHT22;18644;48.700;9.210;2023-05-07T03:41:27;14.20;59.90
32139;DHT22;18644;48.700;9.210;2023-05-07T03:43:55;14.20;59.90
32139;DHT22;18644;48.700;9.210;2023-05-07T03:46:22;14.10;59.80
32139;DHT22;18644;48.700;9.210;2023-05-07T03:48:51;14.10;59.70
32139;DHT22;18644;48.700;9.210;2023-05-07T03:51:18;14.10;59.80
32139;DHT22;18644;48.700;9.210;2023-05-07T03:53:45;14.00;60.00
32139;DHT22;18644;48.700;9.210;2023-05-07T03:56:12;14.00;60.20
32139;DHT22;18644;48.700;9.210;2023-05-07T03:58:40;14.00;60.30
32139;DHT22;18644;48.700;9.210;2023-05-07T04:01:07;13.90;60.30
32139;DHT22;18644;48.700;9.210;2023-05-07T04:03:34;13.90;60.10
32139;DHT22;18644;48.700;9.210;2023-05-07T04:06:00;13.90;60.10
32139;DHT22;18644;48.700;9.210;2023-05-07T04:08:27;13.90;60.10
32139;DHT22;18644;48.700;9.210;2023-05-07T04:10:55;13.80;60.00
32139;DHT22;18644;48.700;9.210;2023-05-07T04:13:22;13.80;60.10
32139;DHT22;18644;48.700;9.210;2023-05-07T04:15:50;13.80;60.20
32139;DHT22;18644;48.700;9.210;2023-05-07T04:18:17;13.70;60.20
32139;DHT22;18644;48.700;9.210;2023-05-07T04:20:44;13.70;60.30
32139;DHT22;18644;48.700;9.210;2023-05-07T04:23:11;13.70;60.30
32139;DHT22;18644;48.700;9.210;2023-05-07T04:25:38;13.70;60.40
32139;DHT22;18644;48.700;9.210;2023-05-07T04:28:05;13.70;60.60
32139;DHT22;18644;48.700;9.210;2023-05-07T04:30:32;13.70;60.80
32139;DHT22;18644;48.700;9.210;2023-05-07T04:33:00;13.60;60.90
32139;DHT22;18644;48.700;9.210;2023-05-07T04:35:27;13.60;61.00
32139;DHT22;18644;48.700;9.210;2023-05-07T04:37:54;13.60;61.20
32139;DHT22;18644;48.700;9.210;2023-05-07T04:40:21;13.70;61.30
32139;DHT22;18644;48.700;9.210;2023-05-07T04:42:48;13.70;61.50
32139;DHT22;18644;48.700;9.210;2023-05-07T04:45:14;13.70;61.60
32139;DHT22;18644;48.700;9.210;2023-05-07T04:47:41;13.70;61.70
32139;DHT22;18644;48.700;9.210;2023-05-07T04:50:10;13.70;61.90
32139;DHT22;18644;48.700;9.210;2023-05-07T04:52:37;13.70;62.10
32139;DHT22;18644;48.700;9.210;2023-05-07T04:55:04;13.70;62.20
32139;DHT22;18644;48.700;9.210;2023-05-07T04:57:32;13.70;62.00
32139;DHT22;18644;48.700;9.210;2023-05-07T04:59:58;13.80;62.20
32139;DHT22;18644;48.700;9.210;2023-05-07T05:02:25;13.80;62.50
32139;DHT22;18644;48.700;9.210;2023-05-07T05:04:52;13.80;62.50
32139;DHT22;18644;48.700;9.210;2023-05-07T05:07:21;13.80;62.50
32139;DHT22;18644;48.700;9.210;2023-05-07T05:09:48;13.90;62.60
32139;DHT22;18644;48.700;9.210;2023-05-07T05:12:14;13.90;62.60
32139;DHT22;18644;48.700;9.210;2023-05-07T05:14:41;13.90;62.60
32139;DHT22;18644;48.700;9.210;2023-05-07T05:17:08;13.90;62.70
32139;DHT22;18644;48.700;9.210;2023-05-07T05:19:35;13.90;62.80
32139;DHT22;18644;48.700;9.210;2023-05-07T05:22:02;14.00;63.00
32139;DHT22;18644;48.700;9.210;2023-05-07T05:24:32;14.10;63.40
32139;DHT22;18644;48.700;9.210;2023-05-07T05:26:58;14.10;63.80
32139;DHT22;18644;48.700;9.210;2023-05-07T05:29:26;14.20;64.10
32139;DHT22;18644;48.700;9.210;2023-05-07T05:31:53;14.30;64.60
32139;DHT22;18644;48.700;9.210;2023-05-07T05:34:20;14.40;65.10
32139;DHT22;18644;48.700;9.210;2023-05-07T05:36:47;14.50;65.50
32139;DHT22;18644;48.700;9.210;2023-05-07T05:39:14;14.70;65.80
32139;DHT22;18644;48.700;9.210;2023-05-07T05:41:43;14.80;65.90
32139;DHT22;18644;48.700;9.210;2023-05-07T05:44:11;14.90;66.00
32139;DHT22;18644;48.700;9.210;2023-05-07T05:46:38;15.10;65.90
32139;DHT22;18644;48.700;9.210;2023-05-07T05:49:05;15.30;65.60
32139;DHT22;18644;48.700;9.210;2023-05-07T05:51:32;15.40;65.50
32139;DHT22;18644;48.700;9.210;2023-05-07T05:53:59;15.60;65.30
32139;DHT22;18644;48.700;9.210;2023-05-07T05:56:26;15.80;65.20
32139;DHT22;18644;48.700;9.210;2023-05-07T05:58:54;16.00;65.00
32139;DHT22;18644;48.700;9.210;2023-05-07T06:01:21;16.10;65.30
32139;DHT22;18644;48.700;9.210;2023-05-07T06:03:48;16.30;65.30
32139;DHT22;18644;48.700;9.210;2023-05-07T06:06:15;16.50;64.90
32139;DHT22;18644;48.700;9.210;2023-05-07T06:08:42;16.60;64.70
32139;DHT22;18644;48.700;9.210;2023-05-07T06:11:09;16.80;64.40
32139;DHT22;18644;48.700;9.210;2023-05-07T06:13:36;17.00;64.10
32139;DHT22;18644;48.700;9.210;2023-05-07T06:16:05;17.10;63.90
32139;DHT22;18644;48.700;9.210;2023-05-07T06:18:32;17.30;63.90
32139;DHT22;18644;48.700;9.210;2023-05-07T06:21:01;17.40;63.70
32139;DHT22;18644;48.700;9.210;2023-05-07T06:23:28;17.60;63.50
32139;DHT22;18644;48.700;9.210;2023-05-07T06:25:55;17.80;63.30
32139;DHT22;18644;48.700;9.210;2023-05-07T06:28:22;17.90;63.00
32139;DHT22;18644;48.700;9.210;2023-05-07T06:30:49;18.10;62.30
32139;DHT22;18644;48.700;9.210;2023-05-07T06:33:17;18.30;61.80
32139;DHT22;18644;48.700;9.210;2023-05-07T06:35:45;18.40;61.40
32139;DHT22;18644;48.700;9.210;2023-05-07T06:38:11;18.60;61.50
32139;DHT22;18644;48.700;9.210;2023-05-07T06:40:38;18.70;61.60
32139;DHT22;18644;48.700;9.210;2023-05-07T06:43:05;18.90;61.50
32139;DHT22;18644;48.700;9.210;2023-05-07T06:45:32;19.10;61.20
32139;DHT22;18644;48.700;9.210;2023-05-07T06:47:59;19.20;60.60
32139;DHT22;18644;48.700;9.210;2023-05-07T06:50:27;19.40;59.90
32139;DHT22;18644;48.700;9.210;2023-05-07T06:52:54;19.50;59.50
32139;DHT22;18644;48.700;9.210;2023-05-07T06:55:21;19.60;59.00
32139;DHT22;18644;48.700;9.210;2023-05-07T06:57:48;19.70;58.70
32139;DHT22;18644;48.700;9.210;2023-05-07T07:00:15;19.90;58.60
32139;DHT22;18644;48.700;9.210;2023-05-07T07:02:42;20.00;58.30
32139;DHT22;18644;48.700;9.210;2023-05-07T07:05:10;20.10;58.10
32139;DHT22;18644;48.700;9.210;2023-05-07T07:07:38;20.30;57.70
32139;DHT22;18644;48.700;9.210;2023-05-07T07:10:06;20.40;57.60
32139;DHT22;18644;48.700;9.210;2023-05-07T07:12:33;20.50;57.90
32139;DHT22;18644;48.700;9.210;2023-05-07T07:15:00;20.60;57.70
32139;DHT22;18644;48.700;9.210;2023-05-07T07:17:27;20.70;57.60
32139;DHT22;18644;48.700;9.210;2023-05-07T07:19:55;20.80;57.70
32139;DHT22;18644;48.700;9.210;2023-05-07T07:22:21;21.00;57.50
32139;DHT22;18644;48.700;9.210;2023-05-07T07:24:50;21.20;57.50
32139;DHT22;18644;48.700;9.210;2023-05-07T07:27:17;21.30;57.40
32139;DHT22;18644;48.700;9.210;2023-05-07T07:29:44;21.50;57.00
32139;DHT22;18644;48.700;9.210;2023-05-07T07:32:10;21.60;56.40
32139;DHT22;18644;48.700;9.210;2023-05-07T07:34:37;21.80;56.30
32139;DHT22;18644;48.700;9.210;2023-05-07T07:37:05;21.90;56.30
32139;DHT22;18644;48.700;9.210;2023-05-07T07:39:32;22.10;56.10
32139;DHT22;18644;48.700;9.210;2023-05-07T07:42:01;22.30;56.20
32139;DHT22;18644;48.700;9.210;2023-05-07T07:44:28;22.40;55.90
32139;DHT22;18644;48.700;9.210;2023-05-07T07:46:55;22.60;55.60
32139;DHT22;18644;48.700;9.210;2023-05-07T07:49:22;22.80;55.70
32139;DHT22;18644;48.700;9.210;2023-05-07T07:51:49;22.90;55.70
32139;DHT22;18644;48.700;9.210;2023-05-07T07:54:16;23.10;55.70
32139;DHT22;18644;48.700;9.210;2023-05-07T07:56:43;23.20;55.60
32139;DHT22;18644;48.700;9.210;2023-05-07T07:59:11;23.40;55.90
32139;DHT22;18644;48.700;9.210;2023-05-07T08:01:39;23.60;55.70
32139;DHT22;18644;48.700;9.210;2023-05-07T08:04:06;23.70;55.20
32139;DHT22;18644;48.700;9.210;2023-05-07T08:06:33;23.90;54.80
32139;DHT22;18644;48.700;9.210;2023-05-07T08:09:00;24.10;54.60
32139;DHT22;18644;48.700;9.210;2023-05-07T08:11:27;24.30;54.70
32139;DHT22;18644;48.700;9.210;2023-05-07T08:13:55;24.40;54.60
32139;DHT22;18644;48.700;9.210;2023-05-07T08:16:24;24.60;54.30
32139;DHT22;18644;48.700;9.210;2023-05-07T08:18:51;24.80;54.20
32139;DHT22;18644;48.700;9.210;2023-05-07T08:21:18;25.00;54.10
32139;DHT22;18644;48.700;9.210;2023-05-07T08:23:45;25.20;53.60
32139;DHT22;18644;48.700;9.210;2023-05-07T08:26:12;25.30;53.00
32139;DHT22;18644;48.700;9.210;2023-05-07T08:28:39;25.40;52.50
32139;DHT22;18644;48.700;9.210;2023-05-07T08:31:06;25.60;52.30
32139;DHT22;18644;48.700;9.210;2023-05-07T08:33:34;25.70;51.70
32139;DHT22;18644;48.700;9.210;2023-05-07T08:36:01;25.80;51.70
32139;DHT22;18644;48.700;9.210;2023-05-07T08:38:28;25.90;52.10
32139;DHT22;18644;48.700;9.210;2023-05-07T08:40:55;26.00;52.20
32139;DHT22;18644;48.700;9.210;2023-05-07T08:43:26;26.20;52.50
32139;DHT22;18644;48.700;9.210;2023-05-07T08:45:58;26.30;52.10
32139;DHT22;18644;48.700;9.210;2023-05-07T08:48:29;26.50;52.10
32139;DHT22;18644;48.700;9.210;2023-05-07T08:50:59;26.60;51.80
32139;DHT22;18644;48.700;9.210;2023-05-07T08:53:26;26.80;51.20
32139;DHT22;18644;48.700;9.210;2023-05-07T08:55:53;26.90;50.80
32139;DHT22;18644;48.700;9.210;2023-05-07T08:58:20;27.00;50.90
32139;DHT22;18644;48.700;9.210;2023-05-07T09:00:47;27.10;50.70
32139;DHT22;18644;48.700;9.210;2023-05-07T09:03:14;27.20;50.70
32139;DHT22;18644;48.700;9.210;2023-05-07T09:05:41;27.30;50.10
32139;DHT22;18644;48.700;9.210;2023-05-07T09:08:14;27.40;49.80
32139;DHT22;18644;48.700;9.210;2023-05-07T09:10:41;27.50;50.00
32139;DHT22;18644;48.700;9.210;2023-05-07T09:13:08;27.60;49.80
32139;DHT22;18644;48.700;9.210;2023-05-07T09:15:38;27.70;49.50
32139;DHT22;18644;48.700;9.210;2023-05-07T09:18:05;27.80;48.60
32139;DHT22;18644;48.700;9.210;2023-05-07T09:20:32;27.90;48.70
32139;DHT22;18644;48.700;9.210;2023-05-07T09:22:59;28.00;48.80
32139;DHT22;18644;48.700;9.210;2023-05-07T09:25:31;28.10;48.30
32139;DHT22;18644;48.700;9.210;2023-05-07T09:28:00;28.10;48.30
32139;DHT22;18644;48.700;9.210;2023-05-07T09:30:28;28.20;48.40
32139;DHT22;18644;48.700;9.210;2023-05-07T09:32:56;28.30;48.30
32139;DHT22;18644;48.700;9.210;2023-05-07T09:35:23;28.40;48.20
32139;DHT22;18644;48.700;9.210;2023-05-07T09:37:52;28.50;48.40
32139;DHT22;18644;48.700;9.210;2023-05-07T09:40:21;28.60;47.40
32139;DHT22;18644;48.700;9.210;2023-05-07T09:42:50;28.60;47.30
32139;DHT22;18644;48.700;9.210;2023-05-07T09:45:21;28.70;47.00
32139;DHT22;18644;48.700;9.210;2023-05-07T09:47:49;28.80;47.10
32139;DHT22;18644;48.700;9.210;2023-05-07T09:50:22;28.90;47.20
32139;DHT22;18644;48.700;9.210;2023-05-07T09:52:54;29.00;46.70
32139;DHT22;18644;48.700;9.210;2023-05-07T09:55:22;29.00;46.30
32139;DHT22;18644;48.700;9.210;2023-05-07T09:57:52;29.10;46.60
32139;DHT22;18644;48.700;9.210;2023-05-07T10:00:22;29.10;46.50
32139;DHT22;18644;48.700;9.210;2023-05-07T10:02:50;29.20;46.40
32139;DHT22;18644;48.700;9.210;2023-05-07T10:05:18;29.30;46.30
32139;DHT22;18644;48.700;9.210;2023-05-07T10:07:46;29.40;46.00
32139;DHT22;18644;48.700;9.210;2023-05-07T10:10:14;29.50;46.00
32139;DHT22;18644;48.700;9.210;2023-05-07T10:12:41;29.50;46.10
32139;DHT22;18644;48.700;9.210;2023-05-07T10:15:11;29.60;46.00
32139;DHT22;18644;48.700;9.210;2023-05-07T10:17:40;29.70;45.30
32139;DHT22;18644;48.700;9.210;2023-05-07T10:20:08;29.70;45.00
32139;DHT22;18644;48.700;9.210;2023-05-07T10:22:39;29.70;44.10
32139;DHT22;18644;48.700;9.210;2023-05-07T10:25:14;29.80;43.70
32139;DHT22;18644;48.700;9.210;2023-05-07T10:27:46;29.80;43.90
32139;DHT22;18644;48.700;9.210;2023-05-07T10:30:29;29.90;44.00
32139;DHT22;18644;48.700;9.210;2023-05-07T10:33:05;30.00;43.10
32139;DHT22;18644;48.700;9.210;2023-05-07T10:35:37;30.00;42.90
32139;DHT22;18644;48.700;9.210;2023-05-07T10:38:06;30.10;43.30
32139;DHT22;18644;48.700;9.210;2023-05-07T10:40:33;30.20;43.70
32139;DHT22;18644;48.700;9.210;2023-05-07T10:43:02;30.20;43.50
32139;DHT22;18644;48.700;9.210;2023-05-07T10:45:32;30.30;43.20
32139;DHT22;18644;48.700;9.210;2023-05-07T10:48:10;30.40;43.60
32139;DHT22;18644;48.700;9.210;2023-05-07T10:50:39;30.50;43.90
32139;DHT22;18644;48.700;9.210;2023-05-07T10:53:27;30.60;44.00
32139;DHT22;18644;48.700;9.210;2023-05-07T10:56:25;30.80;42.90
32139;DHT22;18644;48.700;9.210;2023-05-07T10:58:53;31.00;43.20
32139;DHT22;18644;48.700;9.210;2023-05-07T11:01:51;31.20;43.20
32139;DHT22;18644;48.700;9.210;2023-05-07T11:04:20;31.40;42.40
32139;DHT22;18644;48.700;9.210;2023-05-07T11:07:16;31.50;43.00
32139;DHT22;18644;48.700;9.210;2023-05-07T11:09:55;31.60;42.60
32139;DHT22;18644;48.700;9.210;2023-05-07T11:12:53;31.70;42.60
32139;DHT22;18644;48.700;9.210;2023-05-07T11:15:41;31.90;41.50
32139;DHT22;18644;48.700;9.210;2023-05-07T11:18:12;32.00;41.60
32139;DHT22;18644;48.700;9.210;2023-05-07T11:20:48;32.10;41.40
32139;DHT22;18644;48.700;9.210;2023-05-07T11:26:25;32.30;41.10
32139;DHT22;18644;48.700;9.210;2023-05-07T11:28:52;32.30;41.50
32139;DHT22;18644;48.700;9.210;2023-05-07T11:31:21;32.40;40.60
32139;DHT22;18644;48.700;9.210;2023-05-07T11:33:52;32.50;40.30
32139;DHT22;18644;48.700;9.210;2023-05-07T11:36:20;32.50;40.40
32139;DHT22;18644;48.700;9.210;2023-05-07T11:38:48;32.60;40.90
32139;DHT22;18644;48.700;9.210;2023-05-07T11:41:16;32.60;40.00
32139;DHT22;18644;48.700;9.210;2023-05-07T11:43:55;32.60;38.80
32139;DHT22;18644;48.700;9.210;2023-05-07T11:46:23;32.50;37.30
32139;DHT22;18644;48.700;9.210;2023-05-07T11:48:51;32.50;37.70
32139;DHT22;18644;48.700;9.210;2023-05-07T11:51:19;32.30;37.50
32139;DHT22;18644;48.700;9.210;2023-05-07T11:53:47;32.20;37.60
32139;DHT22;18644;48.700;9.210;2023-05-07T11:56:16;32.10;38.20
32139;DHT22;18644;48.700;9.210;2023-05-07T11:58:45;32.00;37.40
32139;DHT22;18644;48.700;9.210;2023-05-07T12:01:14;31.90;36.80
32139;DHT22;18644;48.700;9.210;2023-05-07T12:03:43;31.70;37.00
32139;DHT22;18644;48.700;9.210;2023-05-07T12:06:13;31.60;37.20
32139;DHT22;18644;48.700;9.210;2023-05-07T12:08:42;31.50;37.60
32139;DHT22;18644;48.700;9.210;2023-05-07T12:11:13;31.30;37.30
32139;DHT22;18644;48.700;9.210;2023-05-07T12:13:43;31.20;36.80
32139;DHT22;18644;48.700;9.210;2023-05-07T12:16:10;31.00;36.40
32139;DHT22;18644;48.700;9.210;2023-05-07T12:18:37;30.90;36.50
32139;DHT22;18644;48.700;9.210;2023-05-07T12:21:05;30.70;37.10
32139;DHT22;18644;48.700;9.210;2023-05-07T12:23:36;30.60;37.90
32139;DHT22;18644;48.700;9.210;2023-05-07T12:26:03;30.50;37.40
32139;DHT22;18644;48.700;9.210;2023-05-07T12:28:36;30.30;36.70
32139;DHT22;18644;48.700;9.210;2023-05-07T12:31:05;30.00;35.40
32139;DHT22;18644;48.700;9.210;2023-05-07T12:33:32;29.70;35.90
32139;DHT22;18644;48.700;9.210;2023-05-07T12:36:04;29.30;36.70
32139;DHT22;18644;48.700;9.210;2023-05-07T12:38:36;28.90;37.30
32139;DHT22;18644;48.700;9.210;2023-05-07T12:41:04;28.60;38.10
32139;DHT22;18644;48.700;9.210;2023-05-07T12:43:32;28.40;38.30
32139;DHT22;18644;48.700;9.210;2023-05-07T12:46:01;28.20;38.50
32139;DHT22;18644;48.700;9.210;2023-05-07T12:48:30;27.90;38.60
32139;DHT22;18644;48.700;9.210;2023-05-07T12:50:58;27.60;38.50
32139;DHT22;18644;48.700;9.210;2023-05-07T12:53:27;27.30;38.20
32139;DHT22;18644;48.700;9.210;2023-05-07T12:55:56;26.90;37.80
32139;DHT22;18644;48.700;9.210;2023-05-07T12:58:26;26.50;37.50
32139;DHT22;18644;48.700;9.210;2023-05-07T13:00:55;26.10;37.80
32139;DHT22;18644;48.700;9.210;2023-05-07T13:03:26;25.70;38.20
32139;DHT22;18644;48.700;9.210;2023-05-07T13:05:55;25.20;38.90
32139;DHT22;18644;48.700;9.210;2023-05-07T13:08:28;24.80;39.40
32139;DHT22;18644;48.700;9.210;2023-05-07T13:10:58;24.40;39.70
32139;DHT22;18644;48.700;9.210;2023-05-07T13:13:28;24.00;40.10
32139;DHT22;18644;48.700;9.210;2023-05-07T13:15:55;23.70;40.90
32139;DHT22;18644;48.700;9.210;2023-05-07T13:18:23;23.30;41.80
32139;DHT22;18644;48.700;9.210;2023-05-07T13:20:51;23.10;42.60
32139;DHT22;18644;48.700;9.210;2023-05-07T13:23:18;22.90;43.40
32139;DHT22;18644;48.700;9.210;2023-05-07T13:25:44;22.60;44.40
32139;DHT22;18644;48.700;9.210;2023-05-07T13:28:13;22.40;44.90
32139;DHT22;18644;48.700;9.210;2023-05-07T13:30:40;22.10;45.40
32139;DHT22;18644;48.700;9.210;2023-05-07T13:33:07;21.80;45.90
32139;DHT22;18644;48.700;9.210;2023-05-07T13:35:34;21.60;46.50
32139;DHT22;18644;48.700;9.210;2023-05-07T13:38:01;21.40;46.80
32139;DHT22;18644;48.700;9.210;2023-05-07T13:40:28;21.20;47.40
32139;DHT22;18644;48.700;9.210;2023-05-07T13:42:57;21.10;47.80
32139;DHT22;18644;48.700;9.210;2023-05-07T13:45:27;21.00;48.40
32139;DHT22;18644;48.700;9.210;2023-05-07T13:47:55;20.90;48.90
32139;DHT22;18644;48.700;9.210;2023-05-07T13:50:23;20.90;49.00
32139;DHT22;18644;48.700;9.210;2023-05-07T13:52:50;20.90;49.40
32139;DHT22;18644;48.700;9.210;2023-05-07T13:55:17;20.90;49.60
32139;DHT22;18644;48.700;9.210;2023-05-07T13:57:44;20.90;49.70
32139;DHT22;18644;48.700;9.210;2023-05-07T14:00:12;20.90;49.70
32139;DHT22;18644;48.700;9.210;2023-05-07T14:02:41;20.80;49.90
32139;DHT22;18644;48.700;9.210;2023-05-07T14:05:08;20.70;50.20
32139;DHT22;18644;48.700;9.210;2023-05-07T14:07:35;20.70;50.50
32139;DHT22;18644;48.700;9.210;2023-05-07T14:10:03;20.50;50.80
32139;DHT22;18644;48.700;9.210;2023-05-07T14:12:30;20.40;51.10
32139;DHT22;18644;48.700;9.210;2023-05-07T14:14:58;20.40;51.60
32139;DHT22;18644;48.700;9.210;2023-05-07T14:17:25;20.30;51.80
32139;DHT22;18644;48.700;9.210;2023-05-07T14:19:54;20.20;52.30
32139;DHT22;18644;48.700;9.210;2023-05-07T14:22:22;20.10;52.80
32139;DHT22;18644;48.700;9.210;2023-05-07T14:24:50;20.00;52.90
32139;DHT22;18644;48.700;9.210;2023-05-07T14:27:17;20.00;53.30
32139;DHT22;18644;48.700;9.210;2023-05-07T14:29:44;19.90;53.50
32139;DHT22;18644;48.700;9.210;2023-05-07T14:32:16;19.90;53.70
32139;DHT22;18644;48.700;9.210;2023-05-07T14:34:43;19.90;54.00
32139;DHT22;18644;48.700;9.210;2023-05-07T14:37:12;19.80;54.30
32139;DHT22;18644;48.700;9.210;2023-05-07T14:39:39;19.80;54.30
32139;DHT22;18644;48.700;9.210;2023-05-07T14:42:06;19.90;54.60
32139;DHT22;18644;48.700;9.210;2023-05-07T14:44:33;19.80;54.60
32139;DHT22;18644;48.700;9.210;2023-05-07T14:47:00;19.90;54.80
32139;DHT22;18644;48.700;9.210;2023-05-07T14:49:27;19.90;55.00
32139;DHT22;18644;48.700;9.210;2023-05-07T14:51:57;19.90;55.20
32139;DHT22;18644;48.700;9.210;2023-05-07T14:54:27;19.90;55.40
32139;DHT22;18644;48.700;9.210;2023-05-07T14:56:54;19.90;55.60
32139;DHT22;18644;48.700;9.210;2023-05-07T14:59:22;20.00;55.70
32139;DHT22;18644;48.700;9.210;2023-05-07T15:01:50;20.00;55.80
32139;DHT22;18644;48.700;9.210;2023-05-07T15:04:17;20.00;56.00
32139;DHT22;18644;48.700;9.210;2023-05-07T15:06:44;20.10;56.50
32139;DHT22;18644;48.700;9.210;2023-05-07T15:09:11;20.10;56.80
32139;DHT22;18644;48.700;9.210;2023-05-07T15:11:40;20.20;57.00
32139;DHT22;18644;48.700;9.210;2023-05-07T15:14:07;20.30;57.30
32139;DHT22;18644;48.700;9.210;2023-05-07T15:16:33;20.30;57.40
32139;DHT22;18644;48.700;9.210;2023-05-07T15:19:00;20.40;57.60
32139;DHT22;18644;48.700;9.210;2023-05-07T15:21:27;20.50;57.70
32139;DHT22;18644;48.700;9.210;2023-05-07T15:23:56;20.60;57.70
32139;DHT22;18644;48.700;9.210;2023-05-07T15:26:23;20.60;57.70
32139;DHT22;18644;48.700;9.210;2023-05-07T15:28:51;20.70;58.50
32139;DHT22;18644;48.700;9.210;2023-05-07T15:31:18;20.80;58.00
32139;DHT22;18644;48.700;9.210;2023-05-07T15:33:45;20.90;58.10
32139;DHT22;18644;48.700;9.210;2023-05-07T15:36:12;21.00;58.10
32139;DHT22;18644;48.700;9.210;2023-05-07T15:38:39;21.00;58.10